createdAt,value
2018-01-20T00:00:43.083Z,100.00
2018-01-20T00:03:10.596Z,100.00
2018-01-20T00:05:38.088Z,100.00
2018-01-20T00:08:05.591Z,100.00
2018-01-20T00:13:39.895Z,100.00
2018-01-20T00:16:08.172Z,100.00
2018-01-20T00:18:35.668Z,100.00
2018-01-20T00:21:03.160Z,100.00
2018-01-20T00:23:30.662Z,100.00
2018-01-20T00:26:03.640Z,100.00
2018-01-20T00:28:31.162Z,100.00
2018-01-20T00:30:58.666Z,100.00
2018-01-20T00:33:26.184Z,100.00
2018-01-20T00:35:53.672Z,100.00
2018-01-20T00:38:21.183Z,100.00
2018-01-20T00:40:48.698Z,100.00
2018-01-20T00:43:16.209Z,100.00
2018-01-20T00:45:43.703Z,100.00
2018-01-20T00:48:11.214Z,100.00
2018-01-20T00:50:38.734Z,100.00
2018-01-20T00:53:06.220Z,100.00
2018-01-20T00:55:33.721Z,100.00
2018-01-20T00:58:01.208Z,100.00
2018-01-20T01:00:29.154Z,100.00
2018-01-20T01:02:56.655Z,100.00
2018-01-20T01:05:24.162Z,100.00
2018-01-20T01:07:51.656Z,100.00
2018-01-20T01:10:19.136Z,100.00
2018-01-20T01:12:46.612Z,100.00
2018-01-20T01:15:14.119Z,100.00
2018-01-20T01:17:41.833Z,100.00
2018-01-20T01:20:09.337Z,100.00
2018-01-20T01:22:36.853Z,100.00
2018-01-20T01:25:04.371Z,100.00
2018-01-20T01:27:31.897Z,100.00
2018-01-20T01:29:59.391Z,100.00
2018-01-20T01:32:26.892Z,100.00
2018-01-20T01:34:54.388Z,100.00
2018-01-20T01:37:21.872Z,100.00
2018-01-20T01:39:49.427Z,100.00
2018-01-20T01:42:16.939Z,100.00
2018-01-20T01:44:44.436Z,100.00
2018-01-20T01:47:11.955Z,100.00
2018-01-20T01:49:39.466Z,100.00
2018-01-20T01:52:07.406Z,100.00
2018-01-20T01:54:34.896Z,100.00
2018-01-20T01:57:02.403Z,100.00
2018-01-20T01:59:29.892Z,100.00
2018-01-20T02:01:58.174Z,100.00
2018-01-20T02:04:25.668Z,100.00
2018-01-20T02:06:53.178Z,100.00
2018-01-20T02:09:20.676Z,100.00
2018-01-20T02:11:48.186Z,100.00
2018-01-20T02:14:15.675Z,100.00
2018-01-20T02:16:43.182Z,100.00
2018-01-20T02:19:10.692Z,100.00
2018-01-20T02:21:38.183Z,100.00
2018-01-20T02:24:05.673Z,100.00
2018-01-20T02:26:33.179Z,100.00
2018-01-20T02:29:00.675Z,100.00
2018-01-20T02:31:28.178Z,100.00
2018-01-20T02:33:55.674Z,100.00
2018-01-20T02:36:23.156Z,100.00
2018-01-20T02:38:50.650Z,100.00
2018-01-20T02:41:18.166Z,100.00
2018-01-20T02:43:45.698Z,100.00
2018-01-20T02:46:13.197Z,100.00
2018-01-20T02:48:40.702Z,100.00
2018-01-20T02:51:08.194Z,100.00
2018-01-20T02:53:35.695Z,100.00
2018-01-20T02:56:03.895Z,100.00
2018-01-20T02:58:31.422Z,100.00
2018-01-20T03:00:58.916Z,100.00
2018-01-20T03:03:26.404Z,100.00
2018-01-20T03:05:53.939Z,100.00
2018-01-20T03:08:21.454Z,100.00
2018-01-20T03:10:48.993Z,100.00
2018-01-20T03:13:17.090Z,100.00
2018-01-20T03:15:44.594Z,100.00
2018-01-20T03:18:12.094Z,100.00
2018-01-20T03:20:39.602Z,100.00
2018-01-20T03:23:07.255Z,100.00
2018-01-20T03:25:34.732Z,100.00
2018-01-20T03:28:02.243Z,100.00
2018-01-20T03:30:29.737Z,100.00
2018-01-20T03:32:57.247Z,100.00
2018-01-20T03:35:24.738Z,100.00
2018-01-20T03:37:52.224Z,100.00
2018-01-20T03:40:19.718Z,100.00
2018-01-20T03:42:47.222Z,100.00
2018-01-20T03:45:14.730Z,100.00
2018-01-20T03:47:42.222Z,100.00
2018-01-20T03:50:09.712Z,100.00
2018-01-20T03:52:37.206Z,100.00
2018-01-20T03:55:04.696Z,100.00
2018-01-20T03:57:32.194Z,100.00
2018-01-20T03:59:59.707Z,100.00
2018-01-20T04:02:27.218Z,100.00
2018-01-20T04:04:54.700Z,100.00
2018-01-20T04:07:22.199Z,100.00
2018-01-20T04:09:49.714Z,100.00
2018-01-20T04:12:17.215Z,100.00
2018-01-20T04:14:44.713Z,100.00
2018-01-20T04:17:12.208Z,100.00
2018-01-20T04:19:39.702Z,100.00
2018-01-20T04:22:07.185Z,100.00
2018-01-20T04:24:34.686Z,100.00
2018-01-20T04:27:02.200Z,100.00
2018-01-20T04:29:29.728Z,100.00
2018-01-20T04:31:57.208Z,100.00
2018-01-20T04:34:24.706Z,100.00
2018-01-20T04:36:52.200Z,100.00
2018-01-20T04:39:19.691Z,100.00
2018-01-20T04:41:47.173Z,100.00
2018-01-20T04:44:14.656Z,100.00
2018-01-20T04:46:42.135Z,100.00
2018-01-20T04:49:09.630Z,100.00
2018-01-20T04:51:37.126Z,100.00
2018-01-20T04:54:04.622Z,100.00
2018-01-20T04:56:32.128Z,100.00
2018-01-20T04:58:59.635Z,100.00
2018-01-20T05:01:27.140Z,100.00
2018-01-20T05:03:54.647Z,100.00
2018-01-20T05:06:22.174Z,100.00
2018-01-20T05:08:49.649Z,100.00
2018-01-20T05:11:17.152Z,100.00
2018-01-20T05:13:44.905Z,100.00
2018-01-20T05:16:12.400Z,100.00
2018-01-20T05:18:39.884Z,100.00
2018-01-20T05:21:07.435Z,100.00
2018-01-20T05:23:34.888Z,100.00
2018-01-20T05:26:02.395Z,100.00
2018-01-20T05:28:29.902Z,100.00
2018-01-20T05:30:57.419Z,100.00
2018-01-20T05:33:24.931Z,100.00
2018-01-20T05:35:52.442Z,100.00
2018-01-20T05:38:19.946Z,100.00
2018-01-20T05:40:47.429Z,100.00
2018-01-20T05:43:14.934Z,100.00
2018-01-20T05:45:42.415Z,100.00
2018-01-20T05:48:09.900Z,100.00
2018-01-20T05:50:37.400Z,100.00
2018-01-20T05:53:04.912Z,100.00
2018-01-20T05:55:32.415Z,100.00
2018-01-20T05:57:59.910Z,100.00
2018-01-20T06:00:27.412Z,100.00
2018-01-20T06:02:54.909Z,100.00
2018-01-20T06:05:22.384Z,100.00
2018-01-20T06:07:49.868Z,100.00
2018-01-20T06:10:17.382Z,100.00
2018-01-20T06:12:44.880Z,100.00
2018-01-20T06:15:12.394Z,100.00
2018-01-20T06:17:39.902Z,100.00
2018-01-20T06:20:07.415Z,100.00
2018-01-20T06:22:34.918Z,100.00
2018-01-20T06:25:02.420Z,100.00
2018-01-20T06:27:29.909Z,100.00
2018-01-20T06:29:57.399Z,100.00
2018-01-20T06:32:24.900Z,100.00
2018-01-20T06:34:52.401Z,100.00
2018-01-20T06:37:19.911Z,100.00
2018-01-20T06:39:47.418Z,100.00
2018-01-20T06:42:14.940Z,100.00
2018-01-20T06:44:43.005Z,100.00
2018-01-20T06:47:10.568Z,100.00
2018-01-20T06:49:38.217Z,100.00
2018-01-20T06:52:09.791Z,100.00
2018-01-20T06:54:37.530Z,100.00
2018-01-20T06:57:05.043Z,100.00
2018-01-20T06:59:32.578Z,100.00
2018-01-20T07:02:00.122Z,100.00
2018-01-20T07:04:27.821Z,100.00
2018-01-20T07:06:55.345Z,100.00
2018-01-20T07:09:22.844Z,100.00
2018-01-20T07:11:50.486Z,100.00
2018-01-20T07:14:17.994Z,100.00
2018-01-20T07:16:49.008Z,100.00
2018-01-20T07:19:16.527Z,100.00
2018-01-20T07:21:44.013Z,100.00
2018-01-20T07:24:11.507Z,100.00
2018-01-20T07:26:39.024Z,100.00
2018-01-20T07:29:06.536Z,100.00
2018-01-20T07:31:34.032Z,100.00
2018-01-20T07:34:01.550Z,100.00
2018-01-20T07:36:36.036Z,100.00
2018-01-20T07:39:03.598Z,100.00
2018-01-20T07:41:32.029Z,100.00
2018-01-20T07:43:59.528Z,100.00
2018-01-20T07:46:27.017Z,100.00
2018-01-20T07:48:54.530Z,100.00
2018-01-20T07:51:22.095Z,100.00
2018-01-20T07:53:49.580Z,100.00
2018-01-20T07:56:17.796Z,100.00
2018-01-20T07:58:45.288Z,100.00
2018-01-20T08:01:12.786Z,100.00
2018-01-20T08:03:40.310Z,100.00
2018-01-20T08:06:07.821Z,100.00
2018-01-20T08:08:35.291Z,99.68
2018-01-20T08:11:02.804Z,100.00
2018-01-20T08:13:30.329Z,98.05
2018-01-20T08:15:57.820Z,97.27
2018-01-20T08:18:25.462Z,95.42
2018-01-20T08:20:52.965Z,93.77
2018-01-20T08:23:20.440Z,91.94
2018-01-20T08:25:47.927Z,92.38
2018-01-20T08:28:15.453Z,93.52
2018-01-20T08:30:42.924Z,94.60
2018-01-20T08:33:10.419Z,95.31
2018-01-20T08:35:37.892Z,94.07
2018-01-20T08:38:05.376Z,93.61
2018-01-20T08:40:32.864Z,93.89
2018-01-20T08:43:00.348Z,94.17
2018-01-20T08:45:27.855Z,93.15
2018-01-20T08:47:55.347Z,92.10
2018-01-20T08:50:22.834Z,93.05
2018-01-20T08:52:50.331Z,92.25
2018-01-20T08:55:17.853Z,92.32
2018-01-20T08:57:45.328Z,88.98
2018-01-20T09:00:12.827Z,85.94
2018-01-20T09:02:40.320Z,83.94
2018-01-20T09:05:07.804Z,83.99
2018-01-20T09:07:35.358Z,82.71
2018-01-20T09:10:02.828Z,84.01
2018-01-20T09:12:30.324Z,86.43
2018-01-20T09:14:57.805Z,87.67
2018-01-20T09:17:25.327Z,87.95
2018-01-20T09:19:52.823Z,84.88
2018-01-20T09:22:20.300Z,83.16
2018-01-20T09:24:48.160Z,80.48
2018-01-20T09:27:15.655Z,79.41
2018-01-20T09:29:43.172Z,78.66
2018-01-20T09:32:10.644Z,77.79
2018-01-20T09:34:38.144Z,77.24
2018-01-20T09:37:05.640Z,77.69
2018-01-20T09:39:33.127Z,73.79
2018-01-20T09:42:00.596Z,72.90
2018-01-20T09:44:28.073Z,71.66
2018-01-20T09:46:55.574Z,71.46
2018-01-20T09:49:23.092Z,75.90
2018-01-20T09:51:50.598Z,77.16
2018-01-20T09:54:18.070Z,77.57
2018-01-20T09:56:45.579Z,80.30
2018-01-20T09:59:13.070Z,81.44
2018-01-20T10:01:40.580Z,83.30
2018-01-20T10:04:08.072Z,85.02
2018-01-20T10:06:35.583Z,86.10
2018-01-20T10:09:03.092Z,87.34
2018-01-20T10:11:30.574Z,87.90
2018-01-20T10:13:58.058Z,88.35
2018-01-20T10:16:25.549Z,88.97
2018-01-20T10:18:53.034Z,89.29
2018-01-20T10:21:21.196Z,87.97
2018-01-20T10:23:48.706Z,89.92
2018-01-20T10:26:16.199Z,90.36
2018-01-20T10:28:43.691Z,90.84
2018-01-20T10:31:11.173Z,90.93
2018-01-20T10:33:38.652Z,90.74
2018-01-20T10:36:06.126Z,90.18
2018-01-20T10:38:33.622Z,90.08
2018-01-20T10:41:01.103Z,88.91
2018-01-20T10:43:28.609Z,90.18
2018-01-20T10:45:56.943Z,90.46
2018-01-20T10:48:24.430Z,92.32
2018-01-20T10:50:51.908Z,91.28
2018-01-20T10:53:19.390Z,90.75
2018-01-20T10:55:46.883Z,94.04
2018-01-20T10:58:14.367Z,90.39
2018-01-20T11:00:41.878Z,91.43
2018-01-20T11:03:09.382Z,91.21
2018-01-20T11:05:36.906Z,92.49
2018-01-20T11:08:04.399Z,92.45
2018-01-20T11:10:31.915Z,92.02
2018-01-20T11:12:59.416Z,92.77
2018-01-20T11:15:26.930Z,90.86
2018-01-20T11:17:54.422Z,92.10
2018-01-20T11:20:21.919Z,92.08
2018-01-20T11:22:49.408Z,91.03
2018-01-20T11:25:16.884Z,90.96
2018-01-20T11:27:44.363Z,91.36
2018-01-20T11:30:11.854Z,92.42
2018-01-20T11:32:39.355Z,92.08
2018-01-20T11:35:08.510Z,92.39
2018-01-20T11:37:36.009Z,92.20
2018-01-20T11:40:03.488Z,93.06
2018-01-20T11:42:31.024Z,93.93
2018-01-20T11:44:59.362Z,94.82
2018-01-20T11:47:27.782Z,96.29
2018-01-20T11:49:55.984Z,96.78
2018-01-20T11:52:23.510Z,96.88
2018-01-20T11:54:51.882Z,96.73
2018-01-20T11:57:19.384Z,97.43
2018-01-20T11:59:46.952Z,98.34
2018-01-20T12:02:14.439Z,99.07
2018-01-20T12:04:41.935Z,99.40
2018-01-20T12:07:09.475Z,99.10
2018-01-20T12:09:36.987Z,98.33
2018-01-20T12:12:04.523Z,99.21
2018-01-20T12:14:32.020Z,98.73
2018-01-20T12:16:59.531Z,98.51
2018-01-20T12:19:27.009Z,96.89
2018-01-20T12:21:54.555Z,97.39
2018-01-20T12:24:22.077Z,97.99
2018-01-20T12:26:49.616Z,96.44
2018-01-20T12:29:17.125Z,96.49
2018-01-20T12:31:44.648Z,96.32
2018-01-20T12:34:12.216Z,94.75
2018-01-20T12:36:39.811Z,97.15
2018-01-20T12:39:07.315Z,95.67
2018-01-20T12:41:34.824Z,95.45
2018-01-20T12:44:02.379Z,96.67
2018-01-20T12:46:29.840Z,95.15
2018-01-20T12:48:57.368Z,95.46
2018-01-20T12:51:25.745Z,94.97
2018-01-20T12:53:53.240Z,91.86
2018-01-20T12:56:20.763Z,92.41
2018-01-20T12:58:48.266Z,91.64
2018-01-20T13:01:15.752Z,90.57
2018-01-20T13:03:43.250Z,90.07
2018-01-20T13:06:10.750Z,91.55
2018-01-20T13:08:38.757Z,92.05
2018-01-20T13:11:06.260Z,89.29
2018-01-20T13:13:33.758Z,89.23
2018-01-20T13:16:01.263Z,88.68
2018-01-20T13:18:28.744Z,88.84
2018-01-20T13:20:56.233Z,89.55
2018-01-20T13:23:23.730Z,88.92
2018-01-20T13:25:51.244Z,88.33
2018-01-20T13:28:18.724Z,88.68
2018-01-20T13:30:46.204Z,88.61
2018-01-20T13:33:13.685Z,91.01
2018-01-20T13:35:41.205Z,90.99
2018-01-20T13:38:08.761Z,92.41
2018-01-20T13:40:36.368Z,89.84
2018-01-20T13:43:03.846Z,90.45
2018-01-20T13:45:31.342Z,90.30
2018-01-20T13:47:58.824Z,89.26
2018-01-20T13:50:26.912Z,90.96
2018-01-20T13:52:54.393Z,90.42
2018-01-20T13:55:22.430Z,91.25
2018-01-20T13:57:49.922Z,91.62
2018-01-20T14:00:17.522Z,93.36
2018-01-20T14:02:44.992Z,92.65
2018-01-20T14:05:12.486Z,92.27
2018-01-20T14:07:39.992Z,92.61
2018-01-20T14:10:07.503Z,92.52
2018-01-20T14:12:34.972Z,93.54
2018-01-20T14:15:02.447Z,91.97
2018-01-20T14:17:29.933Z,92.63
2018-01-20T14:19:57.451Z,92.43
2018-01-20T14:22:26.418Z,92.26
2018-01-20T14:24:53.914Z,91.20
2018-01-20T14:27:21.416Z,91.33
2018-01-20T14:29:48.923Z,91.66
2018-01-20T14:32:17.051Z,91.46
2018-01-20T14:34:44.558Z,91.63
2018-01-20T14:37:12.051Z,91.33
2018-01-20T14:39:39.524Z,91.34
2018-01-20T14:42:07.051Z,90.33
2018-01-20T14:44:34.528Z,90.42
2018-01-20T14:47:02.031Z,91.52
2018-01-20T14:49:29.537Z,92.95
2018-01-20T14:51:57.004Z,90.74
2018-01-20T14:54:24.482Z,91.04
2018-01-20T14:56:51.989Z,91.67
2018-01-20T14:59:19.528Z,90.63
2018-01-20T15:01:47.016Z,90.06
2018-01-20T15:04:15.382Z,92.04
2018-01-20T15:06:43.617Z,92.39
2018-01-20T15:09:11.118Z,93.01
2018-01-20T15:11:38.612Z,91.45
2018-01-20T15:14:06.137Z,90.39
2018-01-20T15:16:33.608Z,90.43
2018-01-20T15:19:01.132Z,91.02
2018-01-20T15:21:28.630Z,90.39
2018-01-20T15:23:56.116Z,91.51
2018-01-20T15:26:23.633Z,91.05
2018-01-20T15:28:51.132Z,92.35
2018-01-20T15:31:18.634Z,92.37
2018-01-20T15:33:46.127Z,92.12
2018-01-20T15:36:13.604Z,91.87
2018-01-20T15:38:41.102Z,92.95
2018-01-20T15:41:08.608Z,92.97
2018-01-20T15:43:36.103Z,91.78
2018-01-20T15:46:03.592Z,91.16
2018-01-20T15:48:31.080Z,90.83
2018-01-20T15:50:58.581Z,91.18
2018-01-20T15:53:26.112Z,91.54
2018-01-20T15:55:53.597Z,92.04
2018-01-20T15:58:21.091Z,92.31
2018-01-20T16:00:48.583Z,92.32
2018-01-20T16:03:16.068Z,92.62
2018-01-20T16:05:43.742Z,92.79
2018-01-20T16:08:11.271Z,92.82
2018-01-20T16:10:38.773Z,93.00
2018-01-20T16:13:06.282Z,93.03
2018-01-20T16:15:33.779Z,92.95
2018-01-20T16:18:01.257Z,93.29
2018-01-20T16:20:28.994Z,93.04
2018-01-20T16:22:56.536Z,92.71
2018-01-20T16:25:24.014Z,93.17
2018-01-20T16:27:51.502Z,93.46
2018-01-20T16:30:18.985Z,93.88
2018-01-20T16:32:46.486Z,94.17
2018-01-20T16:35:15.616Z,94.43
2018-01-20T16:37:43.117Z,94.72
2018-01-20T16:40:10.626Z,94.97
2018-01-20T16:42:38.140Z,95.42
2018-01-20T16:45:05.659Z,95.48
2018-01-20T16:47:33.152Z,95.25
2018-01-20T16:50:00.688Z,95.45
2018-01-20T16:52:28.190Z,95.60
2018-01-20T16:54:56.176Z,95.21
2018-01-20T16:57:23.656Z,95.19
2018-01-20T16:59:51.179Z,94.69
2018-01-20T17:02:18.687Z,95.27
2018-01-20T17:04:46.176Z,95.75
2018-01-20T17:07:13.656Z,95.25
2018-01-20T17:09:41.156Z,95.32
2018-01-20T17:12:08.659Z,95.86
2018-01-20T17:14:36.199Z,96.03
2018-01-20T17:17:03.701Z,96.07
2018-01-20T17:19:31.199Z,96.45
2018-01-20T17:21:58.676Z,96.29
2018-01-20T17:24:26.178Z,96.00
2018-01-20T17:26:53.728Z,96.14
2018-01-20T17:29:21.438Z,96.14
2018-01-20T17:31:48.964Z,96.19
2018-01-20T17:34:16.467Z,96.84
2018-01-20T17:36:43.998Z,96.08
2018-01-20T17:39:12.003Z,96.05
2018-01-20T17:41:39.513Z,95.97
2018-01-20T17:44:07.016Z,96.04
2018-01-20T17:46:34.569Z,96.23
2018-01-20T17:49:03.316Z,96.13
2018-01-20T17:51:30.814Z,96.24
2018-01-20T17:53:58.300Z,95.99
2018-01-20T17:56:25.796Z,95.98
2018-01-20T17:58:53.280Z,95.84
2018-01-20T18:01:20.781Z,95.91
2018-01-20T18:03:48.264Z,96.37
2018-01-20T18:06:15.773Z,96.01
2018-01-20T18:08:43.413Z,96.17
2018-01-20T18:11:10.948Z,96.81
2018-01-20T18:13:38.519Z,97.04
2018-01-20T18:16:06.178Z,96.24
2018-01-20T18:18:49.225Z,96.91
2018-01-20T18:23:44.488Z,96.59
2018-01-20T18:26:12.005Z,96.46
2018-01-20T18:28:39.499Z,95.90
2018-01-20T18:31:06.996Z,96.19
2018-01-20T18:33:34.507Z,96.14
2018-01-20T18:36:03.017Z,96.58
2018-01-20T18:38:30.636Z,95.95
2018-01-20T18:40:58.142Z,95.59
2018-01-20T18:43:25.706Z,95.24
2018-01-20T18:45:55.128Z,95.26
2018-01-20T18:48:22.658Z,95.29
2018-01-20T18:50:50.317Z,94.71
2018-01-20T18:53:18.334Z,94.98
2018-01-20T18:55:46.819Z,94.87
2018-01-20T18:58:14.512Z,94.71
2018-01-20T19:00:42.068Z,94.40
2018-01-20T19:03:09.731Z,94.60
2018-01-20T19:05:37.253Z,94.45
2018-01-20T19:08:04.830Z,94.29
2018-01-20T19:10:32.338Z,94.95
2018-01-20T19:12:59.832Z,95.23
2018-01-20T19:15:27.373Z,94.78
2018-01-20T19:17:54.881Z,94.64
2018-01-20T19:20:22.413Z,94.76
2018-01-20T19:22:49.948Z,94.48
2018-01-20T19:25:17.446Z,95.13
2018-01-20T19:27:45.645Z,95.22
2018-01-20T19:30:13.192Z,94.45
2018-01-20T19:32:40.711Z,95.05
2018-01-20T19:35:08.189Z,94.77
2018-01-20T19:37:35.700Z,94.85
2018-01-20T19:40:03.220Z,94.49
2018-01-20T19:42:30.727Z,94.44
2018-01-20T19:44:58.250Z,94.12
2018-01-20T19:47:25.777Z,94.40
2018-01-20T19:49:53.260Z,94.22
2018-01-20T19:52:20.762Z,94.69
2018-01-20T19:54:48.247Z,94.27
2018-01-20T19:57:15.748Z,94.25
2018-01-20T19:59:43.239Z,94.38
2018-01-20T20:02:11.444Z,94.39
2018-01-20T20:04:38.994Z,94.81
2018-01-20T20:07:06.514Z,94.62
2018-01-20T20:09:34.023Z,95.05
2018-01-20T20:12:01.542Z,94.93
2018-01-20T20:14:29.044Z,95.06
2018-01-20T20:16:56.555Z,95.14
2018-01-20T20:19:24.059Z,94.46
2018-01-20T20:21:51.548Z,94.64
2018-01-20T20:24:19.050Z,94.87
2018-01-20T20:26:46.602Z,94.77
2018-01-20T20:29:14.088Z,94.87
2018-01-20T20:31:41.580Z,94.74
2018-01-20T20:34:09.883Z,94.87
2018-01-20T20:36:37.491Z,94.81
2018-01-20T20:39:05.039Z,94.83
2018-01-20T20:41:32.528Z,94.78
2018-01-20T20:44:00.035Z,95.02
2018-01-20T20:46:27.549Z,95.28
2018-01-20T20:48:55.048Z,95.06
2018-01-20T20:51:22.554Z,95.09
2018-01-20T20:53:50.062Z,95.00
2018-01-20T20:56:17.571Z,95.25
2018-01-20T20:58:45.084Z,95.04
2018-01-20T21:01:12.602Z,94.96
2018-01-20T21:03:40.157Z,95.03
2018-01-20T21:06:07.652Z,95.17
2018-01-20T21:08:35.963Z,95.08
2018-01-20T21:11:03.466Z,95.46
2018-01-20T21:13:30.960Z,95.78
2018-01-20T21:15:58.442Z,95.93
2018-01-20T21:18:25.931Z,96.02
2018-01-20T21:20:53.909Z,96.00
2018-01-20T21:23:21.414Z,95.97
2018-01-20T21:25:48.934Z,95.96
2018-01-20T21:28:16.438Z,96.11
2018-01-20T21:30:43.950Z,96.24
2018-01-20T21:33:11.436Z,96.41
2018-01-20T21:35:38.971Z,96.47
2018-01-20T21:38:06.460Z,96.70
2018-01-20T21:40:33.967Z,96.96
2018-01-20T21:43:02.327Z,97.09
2018-01-20T21:45:29.824Z,97.03
2018-01-20T21:47:57.312Z,97.35
2018-01-20T21:50:24.802Z,97.41
2018-01-20T21:52:52.307Z,97.46
2018-01-20T21:55:19.885Z,97.39
2018-01-20T21:57:47.355Z,97.35
2018-01-20T22:00:14.848Z,97.58
2018-01-20T22:02:42.347Z,97.73
2018-01-20T22:05:09.833Z,97.40
2018-01-20T22:07:37.876Z,97.47
2018-01-20T22:10:05.596Z,97.50
2018-01-20T22:12:33.120Z,97.31
2018-01-20T22:15:00.636Z,97.50
2018-01-20T22:17:28.144Z,97.52
2018-01-20T22:19:56.337Z,97.58
2018-01-20T22:22:23.854Z,97.74
2018-01-20T22:24:51.337Z,97.75
2018-01-20T22:27:18.854Z,97.55
2018-01-20T22:29:46.858Z,97.82
2018-01-20T22:32:14.387Z,98.09
2018-01-20T22:34:41.916Z,98.17
2018-01-20T22:37:09.415Z,98.13
2018-01-20T22:39:36.928Z,98.02
2018-01-20T22:42:04.417Z,98.42
2018-01-20T22:44:31.975Z,98.61
2018-01-20T22:46:59.506Z,98.71
2018-01-20T22:49:26.995Z,98.69
2018-01-20T22:51:54.484Z,98.64
2018-01-20T22:54:21.980Z,99.27
2018-01-20T22:56:49.472Z,99.42
2018-01-20T22:59:16.985Z,99.27
2018-01-20T23:01:44.519Z,98.84
2018-01-20T23:04:12.027Z,98.81
2018-01-20T23:06:39.520Z,98.88
2018-01-20T23:09:07.008Z,98.92
2018-01-20T23:11:34.508Z,98.98
2018-01-20T23:14:02.010Z,98.71
2018-01-20T23:16:29.548Z,98.46
2018-01-20T23:18:57.308Z,98.74
2018-01-20T23:21:24.811Z,98.77
2018-01-20T23:23:52.326Z,98.82
2018-01-20T23:26:19.824Z,98.65
2018-01-20T23:28:47.318Z,98.78
2018-01-20T23:31:14.826Z,98.90
2018-01-20T23:33:42.318Z,98.74
2018-01-20T23:36:09.804Z,99.09
2018-01-20T23:38:37.352Z,98.80
2018-01-20T23:41:05.351Z,98.95
2018-01-20T23:43:32.841Z,99.07
2018-01-20T23:46:00.336Z,98.97
2018-01-20T23:48:27.816Z,99.12
2018-01-20T23:50:55.311Z,98.91
2018-01-20T23:53:22.832Z,98.94
2018-01-20T23:55:50.328Z,99.02
2018-01-20T23:58:17.840Z,98.92
